KCBF

Council Bluffs Municipal Airport

Council Bluffs, Iowa, USA
METAR KCBF 201615Z AUTO 34019G32KT 1 1/2SM -RA BKN009 OVC014 18/18 A2973 RMK AO2
Observed Flight Rules
Aug-20 @ 16:15 UTC (10 minutes ago) Instrument Flight Rules
Wind Visibility Clouds Conditions
340° at 19 knots
 Gusting to 32 knots
1 1/2 miles
  • Broken at 900' AGL
  • Overcast at 1,400' AGL
  • Light Rain
Temperatures Readings
Current 18°C / 64°F
Dewpoint 18°C / 64°F
Humidity 100%
Altimeter 29.73" Hg
Pressure 1007 hPa
Elevation 382
METAR KCBF 201615Z AUTO 34019G32KT 1 1/2SM -RA BKN009 OVC014 18/18 A2973 RMK AO2
Observed Flight Rules
Aug-20 @ 16:15 UTC
(10 minutes ago)
IFR
Wind Visibility
340° at 19 knots
 Gusting to 32 knots
1 1/2 miles
Clouds
  • Broken at 900' AGL
  • Overcast at 1,400' AGL
Conditions
  • Light Rain
Temperature Dewpoint
18°C / 64°F 18°C / 64°F
Humidity Altimeter Pressure
100% 29.73" Hg 1007 hPa